sensor_id;sensor_type;location;lat;lon;timestamp;P1;durP1;ratioP1;P2;durP2;ratioP2
46753;SDS011;32500;50.620;3.400;2023-07-31T00:00:14;88.10;;;54.95;;
46753;SDS011;32500;50.620;3.400;2023-07-31T00:02:39;85.30;;;54.30;;
46753;SDS011;32500;50.620;3.400;2023-07-31T00:05:06;87.50;;;54.70;;
46753;SDS011;32500;50.620;3.400;2023-07-31T00:07:33;88.05;;;54.42;;
46753;SDS011;32500;50.620;3.400;2023-07-31T00:09:58;87.95;;;54.45;;
46753;SDS011;32500;50.620;3.400;2023-07-31T00:12:24;86.95;;;54.75;;
46753;SDS011;32500;50.620;3.400;2023-07-31T00:14:50;86.68;;;54.50;;
46753;SDS011;32500;50.620;3.400;2023-07-31T00:17:16;87.30;;;54.75;;
46753;SDS011;32500;50.620;3.400;2023-07-31T00:19:43;87.57;;;54.47;;
46753;SDS011;32500;50.620;3.400;2023-07-31T00:22:08;85.82;;;54.63;;
46753;SDS011;32500;50.620;3.400;2023-07-31T00:24:34;85.80;;;54.30;;
46753;SDS011;32500;50.620;3.400;2023-07-31T00:26:59;85.65;;;54.25;;
46753;SDS011;32500;50.620;3.400;2023-07-31T00:29:25;87.97;;;54.95;;
46753;SDS011;32500;50.620;3.400;2023-07-31T00:31:50;88.30;;;55.47;;
46753;SDS011;32500;50.620;3.400;2023-07-31T00:34:16;85.40;;;54.55;;
46753;SDS011;32500;50.620;3.400;2023-07-31T00:36:41;86.72;;;54.58;;
46753;SDS011;32500;50.620;3.400;2023-07-31T00:39:07;85.95;;;54.20;;
46753;SDS011;32500;50.620;3.400;2023-07-31T00:41:33;85.32;;;54.03;;
46753;SDS011;32500;50.620;3.400;2023-07-31T00:43:58;86.32;;;54.17;;
46753;SDS011;32500;50.620;3.400;2023-07-31T00:46:24;85.35;;;54.30;;
46753;SDS011;32500;50.620;3.400;2023-07-31T00:48:49;84.95;;;54.47;;
46753;SDS011;32500;50.620;3.400;2023-07-31T00:51:15;84.72;;;54.17;;
46753;SDS011;32500;50.620;3.400;2023-07-31T00:53:41;85.25;;;54.30;;
46753;SDS011;32500;50.620;3.400;2023-07-31T00:56:08;86.10;;;54.75;;
46753;SDS011;32500;50.620;3.400;2023-07-31T00:58:34;87.50;;;54.80;;
46753;SDS011;32500;50.620;3.400;2023-07-31T01:01:00;85.97;;;54.92;;
46753;SDS011;32500;50.620;3.400;2023-07-31T01:03:26;87.88;;;54.65;;
46753;SDS011;32500;50.620;3.400;2023-07-31T01:13:52;84.95;;;54.47;;
46753;SDS011;32500;50.620;3.400;2023-07-31T01:16:19;86.70;;;54.75;;
46753;SDS011;32500;50.620;3.400;2023-07-31T01:18:44;88.32;;;54.78;;
46753;SDS011;32500;50.620;3.400;2023-07-31T01:24:48;84.40;;;54.40;;
46753;SDS011;32500;50.620;3.400;2023-07-31T01:27:23;86.38;;;54.58;;
46753;SDS011;32500;50.620;3.400;2023-07-31T01:29:56;86.47;;;54.88;;
46753;SDS011;32500;50.620;3.400;2023-07-31T01:32:55;86.10;;;54.55;;
46753;SDS011;32500;50.620;3.400;2023-07-31T01:35:22;86.63;;;54.92;;
46753;SDS011;32500;50.620;3.400;2023-07-31T01:37:52;85.78;;;54.45;;
46753;SDS011;32500;50.620;3.400;2023-07-31T01:40:19;86.30;;;54.80;;
46753;SDS011;32500;50.620;3.400;2023-07-31T01:42:44;86.05;;;54.55;;
46753;SDS011;32500;50.620;3.400;2023-07-31T01:45:10;85.30;;;54.83;;
46753;SDS011;32500;50.620;3.400;2023-07-31T01:47:36;85.45;;;54.40;;
46753;SDS011;32500;50.620;3.400;2023-07-31T01:50:02;84.43;;;54.35;;
46753;SDS011;32500;50.620;3.400;2023-07-31T01:52:28;86.32;;;54.47;;
46753;SDS011;32500;50.620;3.400;2023-07-31T01:54:55;84.93;;;54.60;;
46753;SDS011;32500;50.620;3.400;2023-07-31T01:57:20;85.25;;;54.83;;
46753;SDS011;32500;50.620;3.400;2023-07-31T01:59:46;86.47;;;54.72;;
46753;SDS011;32500;50.620;3.400;2023-07-31T02:02:12;87.25;;;54.53;;
46753;SDS011;32500;50.620;3.400;2023-07-31T02:04:38;86.18;;;54.58;;
46753;SDS011;32500;50.620;3.400;2023-07-31T02:07:04;86.32;;;54.72;;
46753;SDS011;32500;50.620;3.400;2023-07-31T02:09:30;85.07;;;54.28;;
46753;SDS011;32500;50.620;3.400;2023-07-31T02:11:56;85.95;;;54.97;;
46753;SDS011;32500;50.620;3.400;2023-07-31T02:14:21;85.10;;;54.45;;
46753;SDS011;32500;50.620;3.400;2023-07-31T02:16:47;84.28;;;54.22;;
46753;SDS011;32500;50.620;3.400;2023-07-31T02:19:13;85.47;;;54.67;;
46753;SDS011;32500;50.620;3.400;2023-07-31T02:21:38;84.88;;;54.33;;
46753;SDS011;32500;50.620;3.400;2023-07-31T02:24:04;83.75;;;54.08;;
46753;SDS011;32500;50.620;3.400;2023-07-31T02:26:29;85.80;;;54.92;;
46753;SDS011;32500;50.620;3.400;2023-07-31T02:28:55;85.50;;;53.95;;
46753;SDS011;32500;50.620;3.400;2023-07-31T02:31:21;84.40;;;54.53;;
46753;SDS011;32500;50.620;3.400;2023-07-31T02:33:46;84.63;;;54.55;;
46753;SDS011;32500;50.620;3.400;2023-07-31T02:36:12;85.38;;;54.42;;
46753;SDS011;32500;50.620;3.400;2023-07-31T02:38:38;85.90;;;54.50;;
46753;SDS011;32500;50.620;3.400;2023-07-31T02:41:03;84.70;;;54.47;;
46753;SDS011;32500;50.620;3.400;2023-07-31T02:43:29;85.38;;;54.42;;
46753;SDS011;32500;50.620;3.400;2023-07-31T02:45:54;83.20;;;53.72;;
46753;SDS011;32500;50.620;3.400;2023-07-31T02:48:20;86.45;;;54.13;;
46753;SDS011;32500;50.620;3.400;2023-07-31T02:50:47;85.10;;;54.42;;
46753;SDS011;32500;50.620;3.400;2023-07-31T02:53:13;85.07;;;54.08;;
46753;SDS011;32500;50.620;3.400;2023-07-31T02:55:38;89.60;;;54.70;;
46753;SDS011;32500;50.620;3.400;2023-07-31T02:58:04;84.22;;;53.72;;
46753;SDS011;32500;50.620;3.400;2023-07-31T03:00:30;84.82;;;54.25;;
46753;SDS011;32500;50.620;3.400;2023-07-31T03:02:55;85.78;;;54.17;;
46753;SDS011;32500;50.620;3.400;2023-07-31T03:05:21;85.13;;;54.30;;
46753;SDS011;32500;50.620;3.400;2023-07-31T03:07:47;84.53;;;54.15;;
46753;SDS011;32500;50.620;3.400;2023-07-31T03:10:12;84.15;;;54.38;;
46753;SDS011;32500;50.620;3.400;2023-07-31T03:12:38;85.38;;;54.10;;
46753;SDS011;32500;50.620;3.400;2023-07-31T03:15:05;84.60;;;54.28;;
46753;SDS011;32500;50.620;3.400;2023-07-31T03:17:31;85.10;;;54.28;;
46753;SDS011;32500;50.620;3.400;2023-07-31T03:19:56;86.15;;;54.92;;
46753;SDS011;32500;50.620;3.400;2023-07-31T03:22:22;84.97;;;54.83;;
46753;SDS011;32500;50.620;3.400;2023-07-31T03:24:47;84.80;;;54.38;;
46753;SDS011;32500;50.620;3.400;2023-07-31T03:27:13;83.60;;;53.75;;
46753;SDS011;32500;50.620;3.400;2023-07-31T03:29:38;85.68;;;54.97;;
46753;SDS011;32500;50.620;3.400;2023-07-31T03:32:04;84.78;;;54.13;;
46753;SDS011;32500;50.620;3.400;2023-07-31T03:34:30;84.57;;;54.70;;
46753;SDS011;32500;50.620;3.400;2023-07-31T03:36:57;83.97;;;53.92;;
46753;SDS011;32500;50.620;3.400;2023-07-31T03:39:23;83.78;;;53.95;;
46753;SDS011;32500;50.620;3.400;2023-07-31T03:41:48;83.97;;;54.20;;
46753;SDS011;32500;50.620;3.400;2023-07-31T03:44:14;85.32;;;54.50;;
46753;SDS011;32500;50.620;3.400;2023-07-31T03:46:40;84.47;;;54.40;;
46753;SDS011;32500;50.620;3.400;2023-07-31T03:49:05;86.55;;;54.72;;
46753;SDS011;32500;50.620;3.400;2023-07-31T03:51:31;84.90;;;54.67;;
46753;SDS011;32500;50.620;3.400;2023-07-31T03:53:56;84.55;;;54.28;;
46753;SDS011;32500;50.620;3.400;2023-07-31T03:56:22;84.22;;;54.08;;
46753;SDS011;32500;50.620;3.400;2023-07-31T03:58:48;83.70;;;54.28;;
46753;SDS011;32500;50.620;3.400;2023-07-31T04:01:13;84.80;;;54.17;;
46753;SDS011;32500;50.620;3.400;2023-07-31T04:03:39;85.10;;;54.42;;
46753;SDS011;32500;50.620;3.400;2023-07-31T04:06:04;83.85;;;54.08;;
46753;SDS011;32500;50.620;3.400;2023-07-31T04:08:32;85.10;;;54.38;;
46753;SDS011;32500;50.620;3.400;2023-07-31T04:10:57;86.20;;;54.67;;
46753;SDS011;32500;50.620;3.400;2023-07-31T04:13:23;83.63;;;53.78;;
46753;SDS011;32500;50.620;3.400;2023-07-31T04:15:49;87.07;;;54.70;;
46753;SDS011;32500;50.620;3.400;2023-07-31T04:18:15;84.07;;;53.90;;
46753;SDS011;32500;50.620;3.400;2023-07-31T04:20:41;84.03;;;53.55;;
46753;SDS011;32500;50.620;3.400;2023-07-31T04:23:07;84.93;;;54.17;;
46753;SDS011;32500;50.620;3.400;2023-07-31T04:25:32;83.88;;;53.75;;
46753;SDS011;32500;50.620;3.400;2023-07-31T04:27:59;83.75;;;53.58;;
46753;SDS011;32500;50.620;3.400;2023-07-31T04:30:25;83.63;;;53.85;;
46753;SDS011;32500;50.620;3.400;2023-07-31T04:32:51;84.47;;;54.25;;
46753;SDS011;32500;50.620;3.400;2023-07-31T04:35:17;84.30;;;54.13;;
46753;SDS011;32500;50.620;3.400;2023-07-31T04:37:42;85.25;;;54.35;;
46753;SDS011;32500;50.620;3.400;2023-07-31T04:40:09;83.20;;;53.67;;
46753;SDS011;32500;50.620;3.400;2023-07-31T04:42:35;85.88;;;54.45;;
46753;SDS011;32500;50.620;3.400;2023-07-31T04:45:01;85.25;;;54.17;;
46753;SDS011;32500;50.620;3.400;2023-07-31T04:47:26;85.28;;;54.13;;
46753;SDS011;32500;50.620;3.400;2023-07-31T04:49:52;83.95;;;54.05;;
46753;SDS011;32500;50.620;3.400;2023-07-31T04:52:18;86.75;;;53.95;;
46753;SDS011;32500;50.620;3.400;2023-07-31T04:54:43;88.55;;;55.67;;
46753;SDS011;32500;50.620;3.400;2023-07-31T04:57:09;84.68;;;53.78;;
46753;SDS011;32500;50.620;3.400;2023-07-31T04:59:34;83.82;;;53.75;;
46753;SDS011;32500;50.620;3.400;2023-07-31T05:02:00;86.00;;;54.80;;
46753;SDS011;32500;50.620;3.400;2023-07-31T05:04:25;84.57;;;54.65;;
46753;SDS011;32500;50.620;3.400;2023-07-31T05:06:51;87.60;;;54.55;;
46753;SDS011;32500;50.620;3.400;2023-07-31T05:09:17;87.35;;;54.83;;
46753;SDS011;32500;50.620;3.400;2023-07-31T05:11:43;87.95;;;54.97;;
46753;SDS011;32500;50.620;3.400;2023-07-31T05:14:09;84.90;;;54.08;;
46753;SDS011;32500;50.620;3.400;2023-07-31T05:16:34;84.18;;;54.05;;
46753;SDS011;32500;50.620;3.400;2023-07-31T05:19:00;85.22;;;54.60;;
46753;SDS011;32500;50.620;3.400;2023-07-31T05:21:25;86.18;;;54.47;;
46753;SDS011;32500;50.620;3.400;2023-07-31T05:23:51;86.63;;;54.95;;
46753;SDS011;32500;50.620;3.400;2023-07-31T05:26:16;85.15;;;54.72;;
46753;SDS011;32500;50.620;3.400;2023-07-31T05:28:42;84.10;;;54.08;;
46753;SDS011;32500;50.620;3.400;2023-07-31T05:31:08;87.45;;;55.63;;
46753;SDS011;32500;50.620;3.400;2023-07-31T05:33:34;86.75;;;55.08;;
46753;SDS011;32500;50.620;3.400;2023-07-31T05:35:59;84.30;;;53.85;;
46753;SDS011;32500;50.620;3.400;2023-07-31T05:38:25;87.40;;;54.15;;
46753;SDS011;32500;50.620;3.400;2023-07-31T05:40:50;87.25;;;55.13;;
46753;SDS011;32500;50.620;3.400;2023-07-31T05:43:16;87.47;;;55.22;;
46753;SDS011;32500;50.620;3.400;2023-07-31T05:45:42;88.07;;;55.22;;
46753;SDS011;32500;50.620;3.400;2023-07-31T05:48:08;86.47;;;54.45;;
46753;SDS011;32500;50.620;3.400;2023-07-31T05:50:37;84.18;;;54.35;;
46753;SDS011;32500;50.620;3.400;2023-07-31T05:53:04;85.00;;;54.97;;
46753;SDS011;32500;50.620;3.400;2023-07-31T05:55:31;87.35;;;54.90;;
46753;SDS011;32500;50.620;3.400;2023-07-31T05:57:57;84.82;;;54.38;;
46753;SDS011;32500;50.620;3.400;2023-07-31T06:00:22;84.70;;;54.40;;
46753;SDS011;32500;50.620;3.400;2023-07-31T06:02:48;86.70;;;54.65;;
46753;SDS011;32500;50.620;3.400;2023-07-31T06:05:14;88.18;;;55.08;;
46753;SDS011;32500;50.620;3.400;2023-07-31T06:07:39;86.65;;;55.10;;
46753;SDS011;32500;50.620;3.400;2023-07-31T06:10:05;87.95;;;54.80;;
46753;SDS011;32500;50.620;3.400;2023-07-31T06:12:31;89.38;;;55.17;;
46753;SDS011;32500;50.620;3.400;2023-07-31T06:14:57;87.68;;;54.55;;
46753;SDS011;32500;50.620;3.400;2023-07-31T06:17:23;85.90;;;54.35;;
46753;SDS011;32500;50.620;3.400;2023-07-31T06:19:49;88.05;;;55.53;;
46753;SDS011;32500;50.620;3.400;2023-07-31T06:22:15;86.80;;;54.92;;
46753;SDS011;32500;50.620;3.400;2023-07-31T06:24:40;88.25;;;55.47;;
46753;SDS011;32500;50.620;3.400;2023-07-31T06:27:06;85.68;;;54.80;;
46753;SDS011;32500;50.620;3.400;2023-07-31T06:29:32;87.50;;;55.20;;
46753;SDS011;32500;50.620;3.400;2023-07-31T06:31:58;87.57;;;54.92;;
46753;SDS011;32500;50.620;3.400;2023-07-31T06:34:24;88.30;;;55.72;;
46753;SDS011;32500;50.620;3.400;2023-07-31T06:36:49;86.53;;;54.88;;
46753;SDS011;32500;50.620;3.400;2023-07-31T06:39:15;87.30;;;55.30;;
46753;SDS011;32500;50.620;3.400;2023-07-31T06:41:41;87.60;;;55.58;;
46753;SDS011;32500;50.620;3.400;2023-07-31T06:44:07;86.88;;;54.80;;
46753;SDS011;32500;50.620;3.400;2023-07-31T06:46:33;87.32;;;55.08;;
46753;SDS011;32500;50.620;3.400;2023-07-31T06:48:59;89.82;;;55.35;;
46753;SDS011;32500;50.620;3.400;2023-07-31T06:51:24;85.85;;;54.33;;
46753;SDS011;32500;50.620;3.400;2023-07-31T06:53:50;87.63;;;55.47;;
46753;SDS011;32500;50.620;3.400;2023-07-31T06:56:16;88.20;;;54.88;;
46753;SDS011;32500;50.620;3.400;2023-07-31T06:58:41;94.63;;;56.03;;
46753;SDS011;32500;50.620;3.400;2023-07-31T07:01:07;97.60;;;57.50;;
46753;SDS011;32500;50.620;3.400;2023-07-31T07:03:32;97.82;;;58.47;;
46753;SDS011;32500;50.620;3.400;2023-07-31T07:05:58;100.97;;;58.47;;
46753;SDS011;32500;50.620;3.400;2023-07-31T07:08:24;97.50;;;57.97;;
46753;SDS011;32500;50.620;3.400;2023-07-31T07:10:50;107.50;;;58.88;;
46753;SDS011;32500;50.620;3.400;2023-07-31T07:13:15;100.47;;;58.35;;
46753;SDS011;32500;50.620;3.400;2023-07-31T07:15:43;98.70;;;58.17;;
46753;SDS011;32500;50.620;3.400;2023-07-31T07:18:12;99.18;;;57.28;;
46753;SDS011;32500;50.620;3.400;2023-07-31T07:20:39;97.13;;;57.40;;
46753;SDS011;32500;50.620;3.400;2023-07-31T07:23:04;98.05;;;57.78;;
46753;SDS011;32500;50.620;3.400;2023-07-31T07:25:31;92.95;;;56.28;;
46753;SDS011;32500;50.620;3.400;2023-07-31T07:27:56;103.00;;;58.80;;
46753;SDS011;32500;50.620;3.400;2023-07-31T07:30:22;98.47;;;58.05;;
46753;SDS011;32500;50.620;3.400;2023-07-31T07:32:50;94.80;;;57.08;;
46753;SDS011;32500;50.620;3.400;2023-07-31T07:35:15;89.25;;;55.63;;
46753;SDS011;32500;50.620;3.400;2023-07-31T07:37:41;100.95;;;57.95;;
46753;SDS011;32500;50.620;3.400;2023-07-31T07:40:07;103.80;;;59.08;;
46753;SDS011;32500;50.620;3.400;2023-07-31T07:42:33;95.35;;;56.90;;
46753;SDS011;32500;50.620;3.400;2023-07-31T07:44:58;99.10;;;58.78;;
46753;SDS011;32500;50.620;3.400;2023-07-31T07:47:24;99.00;;;58.35;;
46753;SDS011;32500;50.620;3.400;2023-07-31T07:49:50;99.32;;;58.65;;
46753;SDS011;32500;50.620;3.400;2023-07-31T07:52:15;94.72;;;57.28;;
46753;SDS011;32500;50.620;3.400;2023-07-31T07:54:41;98.25;;;57.80;;
46753;SDS011;32500;50.620;3.400;2023-07-31T07:57:06;92.15;;;56.28;;
46753;SDS011;32500;50.620;3.400;2023-07-31T07:59:32;93.95;;;57.00;;
46753;SDS011;32500;50.620;3.400;2023-07-31T08:01:57;93.32;;;56.90;;
46753;SDS011;32500;50.620;3.400;2023-07-31T08:04:23;94.95;;;57.60;;
46753;SDS011;32500;50.620;3.400;2023-07-31T08:06:48;94.40;;;57.40;;
46753;SDS011;32500;50.620;3.400;2023-07-31T08:09:14;93.65;;;57.10;;
46753;SDS011;32500;50.620;3.400;2023-07-31T08:11:40;94.95;;;57.42;;
46753;SDS011;32500;50.620;3.400;2023-07-31T08:14:05;93.05;;;56.95;;
46753;SDS011;32500;50.620;3.400;2023-07-31T08:16:31;94.28;;;57.17;;
46753;SDS011;32500;50.620;3.400;2023-07-31T08:18:56;94.80;;;57.15;;
46753;SDS011;32500;50.620;3.400;2023-07-31T08:21:22;98.95;;;57.60;;
46753;SDS011;32500;50.620;3.400;2023-07-31T08:23:48;98.78;;;57.22;;
46753;SDS011;32500;50.620;3.400;2023-07-31T08:26:14;96.53;;;57.10;;
46753;SDS011;32500;50.620;3.400;2023-07-31T08:28:43;93.13;;;57.22;;
46753;SDS011;32500;50.620;3.400;2023-07-31T08:31:09;90.10;;;56.05;;
46753;SDS011;32500;50.620;3.400;2023-07-31T08:33:35;88.70;;;55.80;;
46753;SDS011;32500;50.620;3.400;2023-07-31T08:36:01;97.57;;;57.20;;
46753;SDS011;32500;50.620;3.400;2023-07-31T08:38:27;92.55;;;56.85;;
46753;SDS011;32500;50.620;3.400;2023-07-31T08:40:54;92.97;;;56.72;;
46753;SDS011;32500;50.620;3.400;2023-07-31T08:43:22;93.03;;;56.13;;
46753;SDS011;32500;50.620;3.400;2023-07-31T08:45:50;94.90;;;57.05;;
46753;SDS011;32500;50.620;3.400;2023-07-31T08:48:16;89.30;;;56.22;;
46753;SDS011;32500;50.620;3.400;2023-07-31T08:50:42;88.80;;;55.83;;
46753;SDS011;32500;50.620;3.400;2023-07-31T08:53:08;87.85;;;55.10;;
46753;SDS011;32500;50.620;3.400;2023-07-31T08:55:34;90.57;;;56.40;;
46753;SDS011;32500;50.620;3.400;2023-07-31T08:58:01;91.55;;;56.22;;
46753;SDS011;32500;50.620;3.400;2023-07-31T09:00:29;91.93;;;56.08;;
46753;SDS011;32500;50.620;3.400;2023-07-31T09:03:03;89.57;;;56.33;;
46753;SDS011;32500;50.620;3.400;2023-07-31T09:05:38;87.65;;;55.60;;
46753;SDS011;32500;50.620;3.400;2023-07-31T09:08:08;91.65;;;55.97;;
46753;SDS011;32500;50.620;3.400;2023-07-31T09:10:35;90.03;;;56.45;;
46753;SDS011;32500;50.620;3.400;2023-07-31T09:13:05;90.80;;;55.92;;
46753;SDS011;32500;50.620;3.400;2023-07-31T09:15:31;89.90;;;55.97;;
46753;SDS011;32500;50.620;3.400;2023-07-31T09:18:00;90.30;;;56.13;;
46753;SDS011;32500;50.620;3.400;2023-07-31T09:20:26;91.55;;;55.90;;
46753;SDS011;32500;50.620;3.400;2023-07-31T09:22:52;90.88;;;56.15;;
46753;SDS011;32500;50.620;3.400;2023-07-31T09:25:18;90.50;;;56.00;;
46753;SDS011;32500;50.620;3.400;2023-07-31T09:30:12;89.90;;;55.95;;
46753;SDS011;32500;50.620;3.400;2023-07-31T09:32:38;92.32;;;56.25;;
46753;SDS011;32500;50.620;3.400;2023-07-31T09:35:13;90.40;;;56.08;;
46753;SDS011;32500;50.620;3.400;2023-07-31T09:37:54;89.15;;;55.58;;
46753;SDS011;32500;50.620;3.400;2023-07-31T09:40:27;89.72;;;56.10;;
46753;SDS011;32500;50.620;3.400;2023-07-31T09:42:57;92.65;;;55.92;;
46753;SDS011;32500;50.620;3.400;2023-07-31T09:45:25;88.82;;;55.90;;
46753;SDS011;32500;50.620;3.400;2023-07-31T09:47:51;89.38;;;56.20;;
46753;SDS011;32500;50.620;3.400;2023-07-31T09:50:19;89.75;;;56.38;;
46753;SDS011;32500;50.620;3.400;2023-07-31T09:52:45;88.93;;;56.15;;
46753;SDS011;32500;50.620;3.400;2023-07-31T09:55:12;87.85;;;55.88;;
46753;SDS011;32500;50.620;3.400;2023-07-31T09:57:39;92.60;;;56.60;;
46753;SDS011;32500;50.620;3.400;2023-07-31T10:00:07;91.38;;;56.28;;
46753;SDS011;32500;50.620;3.400;2023-07-31T10:02:37;90.45;;;56.33;;
46753;SDS011;32500;50.620;3.400;2023-07-31T10:05:04;89.75;;;56.33;;
46753;SDS011;32500;50.620;3.400;2023-07-31T10:07:34;90.75;;;56.45;;
46753;SDS011;32500;50.620;3.400;2023-07-31T10:10:07;93.68;;;56.33;;
46753;SDS011;32500;50.620;3.400;2023-07-31T10:12:36;90.53;;;56.45;;
46753;SDS011;32500;50.620;3.400;2023-07-31T10:15:03;90.40;;;55.85;;
46753;SDS011;32500;50.620;3.400;2023-07-31T10:17:29;90.72;;;56.05;;
46753;SDS011;32500;50.620;3.400;2023-07-31T10:19:57;92.80;;;56.33;;
46753;SDS011;32500;50.620;3.400;2023-07-31T10:22:28;90.22;;;56.15;;
46753;SDS011;32500;50.620;3.400;2023-07-31T10:24:55;89.90;;;55.88;;
46753;SDS011;32500;50.620;3.400;2023-07-31T10:27:23;88.70;;;56.08;;
46753;SDS011;32500;50.620;3.400;2023-07-31T10:29:49;90.90;;;56.22;;
46753;SDS011;32500;50.620;3.400;2023-07-31T10:32:16;89.28;;;55.60;;
46753;SDS011;32500;50.620;3.400;2023-07-31T10:34:42;89.30;;;55.95;;
46753;SDS011;32500;50.620;3.400;2023-07-31T10:37:19;90.78;;;56.20;;
46753;SDS011;32500;50.620;3.400;2023-07-31T10:39:58;89.43;;;55.83;;
46753;SDS011;32500;50.620;3.400;2023-07-31T10:42:31;89.50;;;55.90;;
46753;SDS011;32500;50.620;3.400;2023-07-31T10:44:58;90.18;;;55.78;;
46753;SDS011;32500;50.620;3.400;2023-07-31T10:47:24;91.38;;;56.10;;
46753;SDS011;32500;50.620;3.400;2023-07-31T10:50:10;91.10;;;55.92;;
46753;SDS011;32500;50.620;3.400;2023-07-31T10:52:57;91.72;;;55.75;;
46753;SDS011;32500;50.620;3.400;2023-07-31T10:57:51;90.53;;;56.08;;
46753;SDS011;32500;50.620;3.400;2023-07-31T11:00:17;95.18;;;56.33;;
46753;SDS011;32500;50.620;3.400;2023-07-31T11:08:20;92.45;;;55.60;;
46753;SDS011;32500;50.620;3.400;2023-07-31T11:10:47;89.20;;;55.88;;
46753;SDS011;32500;50.620;3.400;2023-07-31T11:13:14;90.82;;;55.95;;
46753;SDS011;32500;50.620;3.400;2023-07-31T11:15:40;96.57;;;56.17;;
46753;SDS011;32500;50.620;3.400;2023-07-31T11:18:06;91.63;;;56.40;;
46753;SDS011;32500;50.620;3.400;2023-07-31T11:20:35;88.13;;;56.00;;
46753;SDS011;32500;50.620;3.400;2023-07-31T11:23:02;91.53;;;56.30;;
46753;SDS011;32500;50.620;3.400;2023-07-31T11:25:32;89.88;;;56.13;;
46753;SDS011;32500;50.620;3.400;2023-07-31T11:28:05;90.97;;;56.03;;
46753;SDS011;32500;50.620;3.400;2023-07-31T11:30:32;91.43;;;56.35;;
46753;SDS011;32500;50.620;3.400;2023-07-31T11:32:59;88.95;;;56.45;;
46753;SDS011;32500;50.620;3.400;2023-07-31T11:35:26;90.53;;;56.08;;
46753;SDS011;32500;50.620;3.400;2023-07-31T11:37:52;87.78;;;56.05;;
46753;SDS011;32500;50.620;3.400;2023-07-31T11:40:18;90.85;;;55.80;;
46753;SDS011;32500;50.620;3.400;2023-07-31T11:42:43;90.65;;;55.67;;
46753;SDS011;32500;50.620;3.400;2023-07-31T11:45:09;87.95;;;55.65;;
46753;SDS011;32500;50.620;3.400;2023-07-31T11:47:35;88.47;;;55.67;;
46753;SDS011;32500;50.620;3.400;2023-07-31T11:50:03;89.15;;;55.80;;
46753;SDS011;32500;50.620;3.400;2023-07-31T11:55:01;86.80;;;55.28;;
46753;SDS011;32500;50.620;3.400;2023-07-31T11:57:27;90.35;;;55.83;;
46753;SDS011;32500;50.620;3.400;2023-07-31T11:59:53;88.20;;;55.17;;
46753;SDS011;32500;50.620;3.400;2023-07-31T12:02:20;86.93;;;55.45;;
46753;SDS011;32500;50.620;3.400;2023-07-31T12:04:46;88.45;;;55.78;;
46753;SDS011;32500;50.620;3.400;2023-07-31T12:07:13;89.53;;;55.67;;
46753;SDS011;32500;50.620;3.400;2023-07-31T12:09:50;87.28;;;55.53;;
46753;SDS011;32500;50.620;3.400;2023-07-31T12:12:19;90.63;;;55.90;;
46753;SDS011;32500;50.620;3.400;2023-07-31T12:14:47;90.53;;;56.22;;
46753;SDS011;32500;50.620;3.400;2023-07-31T12:17:12;91.63;;;56.33;;
46753;SDS011;32500;50.620;3.400;2023-07-31T12:19:39;88.55;;;55.80;;
46753;SDS011;32500;50.620;3.400;2023-07-31T12:22:11;89.07;;;55.85;;
46753;SDS011;32500;50.620;3.400;2023-07-31T12:24:42;93.00;;;55.50;;
46753;SDS011;32500;50.620;3.400;2023-07-31T12:27:12;92.07;;;55.90;;
46753;SDS011;32500;50.620;3.400;2023-07-31T12:29:39;90.40;;;55.33;;
46753;SDS011;32500;50.620;3.400;2023-07-31T12:32:29;96.45;;;55.33;;
46753;SDS011;32500;50.620;3.400;2023-07-31T12:34:55;93.57;;;55.28;;
46753;SDS011;32500;50.620;3.400;2023-07-31T12:37:24;97.05;;;56.03;;
46753;SDS011;32500;50.620;3.400;2023-07-31T12:39:50;92.28;;;55.45;;
46753;SDS011;32500;50.620;3.400;2023-07-31T12:42:17;93.07;;;55.50;;
46753;SDS011;32500;50.620;3.400;2023-07-31T12:44:43;87.38;;;55.45;;
46753;SDS011;32500;50.620;3.400;2023-07-31T12:47:08;86.85;;;55.00;;
46753;SDS011;32500;50.620;3.400;2023-07-31T12:49:34;93.30;;;55.88;;
46753;SDS011;32500;50.620;3.400;2023-07-31T12:52:00;87.20;;;55.53;;
46753;SDS011;32500;50.620;3.400;2023-07-31T12:54:25;92.80;;;55.70;;
46753;SDS011;32500;50.620;3.400;2023-07-31T12:56:51;96.15;;;56.13;;
46753;SDS011;32500;50.620;3.400;2023-07-31T12:59:16;91.13;;;55.47;;
46753;SDS011;32500;50.620;3.400;2023-07-31T13:01:42;91.07;;;55.35;;
46753;SDS011;32500;50.620;3.400;2023-07-31T13:04:07;97.70;;;55.28;;
46753;SDS011;32500;50.620;3.400;2023-07-31T13:06:33;97.22;;;55.10;;
46753;SDS011;32500;50.620;3.400;2023-07-31T13:08:59;92.97;;;55.72;;
46753;SDS011;32500;50.620;3.400;2023-07-31T13:11:24;88.93;;;55.65;;
46753;SDS011;32500;50.620;3.400;2023-07-31T13:13:50;93.25;;;55.97;;
46753;SDS011;32500;50.620;3.400;2023-07-31T13:16:16;88.50;;;55.55;;
46753;SDS011;32500;50.620;3.400;2023-07-31T13:18:41;88.35;;;55.17;;
46753;SDS011;32500;50.620;3.400;2023-07-31T13:21:07;94.28;;;54.95;;
46753;SDS011;32500;50.620;3.400;2023-07-31T13:23:32;93.95;;;55.17;;
46753;SDS011;32500;50.620;3.400;2023-07-31T13:25:58;89.88;;;55.63;;
46753;SDS011;32500;50.620;3.400;2023-07-31T13:28:24;89.22;;;54.97;;
46753;SDS011;32500;50.620;3.400;2023-07-31T13:30:49;88.70;;;55.28;;
46753;SDS011;32500;50.620;3.400;2023-07-31T13:33:15;87.50;;;54.92;;
46753;SDS011;32500;50.620;3.400;2023-07-31T13:35:40;86.68;;;54.83;;
46753;SDS011;32500;50.620;3.400;2023-07-31T13:38:06;89.50;;;55.65;;
46753;SDS011;32500;50.620;3.400;2023-07-31T13:40:32;86.05;;;54.90;;
46753;SDS011;32500;50.620;3.400;2023-07-31T13:42:57;87.40;;;55.45;;
46753;SDS011;32500;50.620;3.400;2023-07-31T13:45:23;89.07;;;55.15;;
46753;SDS011;32500;50.620;3.400;2023-07-31T13:47:49;89.07;;;55.40;;
46753;SDS011;32500;50.620;3.400;2023-07-31T13:50:16;87.93;;;55.05;;
46753;SDS011;32500;50.620;3.400;2023-07-31T13:52:44;90.95;;;55.30;;
46753;SDS011;32500;50.620;3.400;2023-07-31T13:55:09;91.00;;;55.25;;
46753;SDS011;32500;50.620;3.400;2023-07-31T13:57:35;88.78;;;55.28;;
46753;SDS011;32500;50.620;3.400;2023-07-31T14:00:00;92.40;;;55.28;;
46753;SDS011;32500;50.620;3.400;2023-07-31T14:02:27;89.28;;;55.70;;
46753;SDS011;32500;50.620;3.400;2023-07-31T14:04:52;89.80;;;55.10;;
46753;SDS011;32500;50.620;3.400;2023-07-31T14:07:18;87.50;;;55.15;;
46753;SDS011;32500;50.620;3.400;2023-07-31T14:09:44;89.93;;;55.17;;
46753;SDS011;32500;50.620;3.400;2023-07-31T14:12:09;89.22;;;55.72;;
46753;SDS011;32500;50.620;3.400;2023-07-31T14:14:35;90.75;;;55.33;;
46753;SDS011;32500;50.620;3.400;2023-07-31T14:17:00;88.75;;;55.38;;
46753;SDS011;32500;50.620;3.400;2023-07-31T14:19:26;89.43;;;55.35;;
46753;SDS011;32500;50.620;3.400;2023-07-31T14:21:52;90.22;;;55.65;;
46753;SDS011;32500;50.620;3.400;2023-07-31T14:24:17;89.22;;;55.33;;
46753;SDS011;32500;50.620;3.400;2023-07-31T14:26:43;91.45;;;55.13;;
46753;SDS011;32500;50.620;3.400;2023-07-31T14:29:08;87.97;;;54.97;;
46753;SDS011;32500;50.620;3.400;2023-07-31T14:31:34;93.22;;;55.17;;
46753;SDS011;32500;50.620;3.400;2023-07-31T14:34:00;91.38;;;55.42;;
46753;SDS011;32500;50.620;3.400;2023-07-31T14:36:26;101.47;;;55.78;;
46753;SDS011;32500;50.620;3.400;2023-07-31T14:38:52;89.43;;;55.65;;
46753;SDS011;32500;50.620;3.400;2023-07-31T14:41:17;85.93;;;54.40;;